createdAt,value
2023-03-26T00:02:05.643Z,8.44
2023-03-26T00:04:34.613Z,8.39
2023-03-26T00:07:03.332Z,8.35
2023-03-26T00:09:31.588Z,8.31
2023-03-26T00:11:59.940Z,8.26
2023-03-26T00:14:30.066Z,8.21
2023-03-26T00:16:58.381Z,8.17
2023-03-26T00:19:27.979Z,8.13
2023-03-26T00:21:57.792Z,8.10
2023-03-26T00:24:29.671Z,8.08
2023-03-26T00:26:58.116Z,8.06
2023-03-26T00:29:28.027Z,8.04
2023-03-26T00:31:57.030Z,8.01
2023-03-26T00:34:26.712Z,8.00
2023-03-26T00:36:55.119Z,7.97
2023-03-26T00:39:24.117Z,7.96
2023-03-26T00:41:54.534Z,7.96
2023-03-26T00:44:23.170Z,7.97
2023-03-26T00:46:51.533Z,7.98
2023-03-26T00:49:19.874Z,7.99
2023-03-26T00:51:48.258Z,7.99
2023-03-26T00:54:17.413Z,7.99
2023-03-26T00:56:45.613Z,8.00
2023-03-26T00:59:13.935Z,8.01
2023-03-26T01:01:42.390Z,8.01
2023-03-26T01:04:31.285Z,8.01
2023-03-26T01:07:21.720Z,8.01
2023-03-26T01:09:51.698Z,8.03
2023-03-26T01:12:22.936Z,8.04
2023-03-26T01:14:53.251Z,8.05
2023-03-26T01:17:23.630Z,8.06
2023-03-26T01:20:00.306Z,8.07
2023-03-26T01:22:28.682Z,8.06
2023-03-26T01:24:57.034Z,8.06
2023-03-26T01:27:35.967Z,8.05
2023-03-26T01:30:07.628Z,8.04
2023-03-26T01:32:55.705Z,8.04
2023-03-26T01:35:46.777Z,8.02
2023-03-26T01:38:35.522Z,8.02
2023-03-26T01:41:28.540Z,8.01
2023-03-26T01:44:23.768Z,8.00
2023-03-26T01:46:52.550Z,7.99
2023-03-26T01:49:21.455Z,8.00
2023-03-26T01:51:51.320Z,8.00
2023-03-26T01:54:24.513Z,8.00
2023-03-26T01:57:18.388Z,8.01
2023-03-26T01:59:55.697Z,8.01
2023-03-26T02:02:34.489Z,8.00
2023-03-26T02:05:06.095Z,8.00
2023-03-26T02:08:09.765Z,7.99
2023-03-26T02:10:46.634Z,7.98
2023-03-26T02:13:15.378Z,7.97
2023-03-26T02:16:06.004Z,7.96
2023-03-26T02:18:39.112Z,7.96
2023-03-26T02:21:20.438Z,7.96
2023-03-26T02:24:03.237Z,7.98
2023-03-26T02:26:35.983Z,8.01
2023-03-26T02:29:09.681Z,8.04
2023-03-26T02:31:39.285Z,8.05
2023-03-26T02:34:07.448Z,8.05
2023-03-26T02:36:37.432Z,8.04
2023-03-26T02:39:06.074Z,8.02
2023-03-26T02:41:38.230Z,7.98
2023-03-26T02:44:09.892Z,7.93
2023-03-26T02:46:56.654Z,7.87
2023-03-26T02:49:50.721Z,7.81
2023-03-26T02:52:39.257Z,7.76
2023-03-26T02:55:07.895Z,7.72
2023-03-26T02:57:36.976Z,7.68
2023-03-26T03:00:17.149Z,7.65
2023-03-26T03:02:52.879Z,7.63
2023-03-26T03:05:26.608Z,7.62
2023-03-26T03:08:18.346Z,7.61
2023-03-26T03:11:04.442Z,7.59
2023-03-26T03:13:53.656Z,7.55
2023-03-26T03:16:24.457Z,7.52
2023-03-26T03:18:58.278Z,7.51
2023-03-26T03:21:37.260Z,7.49
2023-03-26T03:24:05.958Z,7.48
2023-03-26T03:26:37.755Z,7.48
2023-03-26T03:29:28.952Z,7.48
2023-03-26T03:32:00.191Z,7.48
2023-03-26T03:34:38.827Z,7.48
2023-03-26T03:37:07.233Z,7.50
2023-03-26T03:39:55.352Z,7.51
2023-03-26T03:42:25.326Z,7.52
2023-03-26T03:44:54.698Z,7.53
2023-03-26T03:47:49.384Z,7.53
2023-03-26T03:50:21.168Z,7.54
2023-03-26T03:53:01.121Z,7.55
2023-03-26T03:55:30.079Z,7.56
2023-03-26T03:57:59.984Z,7.57
2023-03-26T04:00:28.380Z,7.57
2023-03-26T04:03:33.271Z,7.55
2023-03-26T04:06:06.869Z,7.54
2023-03-26T04:08:35.621Z,7.54
2023-03-26T04:11:05.797Z,7.53
2023-03-26T04:13:34.276Z,7.53
2023-03-26T04:16:22.956Z,7.53
2023-03-26T04:18:51.241Z,7.53
2023-03-26T04:21:20.004Z,7.54
2023-03-26T04:23:49.059Z,7.53
2023-03-26T04:26:35.878Z,7.54
2023-03-26T04:29:12.030Z,7.54
2023-03-26T04:31:40.455Z,7.54
2023-03-26T04:34:19.243Z,7.53
2023-03-26T04:36:56.678Z,7.53
2023-03-26T04:39:29.408Z,7.53
2023-03-26T04:42:20.069Z,7.52
2023-03-26T04:45:03.233Z,7.52
2023-03-26T04:47:32.352Z,7.53
2023-03-26T04:50:01.225Z,7.54
2023-03-26T04:52:29.972Z,7.55
2023-03-26T04:55:35.637Z,7.55
2023-03-26T04:58:09.483Z,7.54
2023-03-26T05:00:50.326Z,7.54
2023-03-26T05:03:21.040Z,7.55
2023-03-26T05:05:49.985Z,7.58
2023-03-26T05:08:18.252Z,7.59
2023-03-26T05:10:46.677Z,7.60
2023-03-26T05:13:22.263Z,7.61
2023-03-26T05:15:52.679Z,7.63
2023-03-26T05:18:51.554Z,7.65
2023-03-26T05:21:20.801Z,7.66
2023-03-26T05:23:49.185Z,7.67
2023-03-26T05:26:19.992Z,7.69
2023-03-26T05:28:48.816Z,7.71
2023-03-26T05:31:28.111Z,7.73
2023-03-26T05:34:00.520Z,7.76
2023-03-26T05:36:29.525Z,7.81
2023-03-26T05:39:06.720Z,7.87
2023-03-26T05:42:13.173Z,7.95
2023-03-26T05:44:57.104Z,8.02
2023-03-26T05:47:28.478Z,8.09
2023-03-26T05:49:57.010Z,8.17
2023-03-26T05:52:25.656Z,8.26
2023-03-26T05:55:13.401Z,8.37
2023-03-26T05:58:20.071Z,8.47
2023-03-26T06:01:05.772Z,8.57
2023-03-26T06:03:46.114Z,8.67
2023-03-26T06:06:20.621Z,8.82
2023-03-26T06:09:01.595Z,8.98
2023-03-26T06:11:32.162Z,9.08
2023-03-26T06:14:01.831Z,9.14
2023-03-26T06:16:30.404Z,9.13
2023-03-26T06:19:10.586Z,9.15
2023-03-26T06:21:50.488Z,9.23
2023-03-26T06:24:26.110Z,9.34
2023-03-26T06:27:06.589Z,9.51
2023-03-26T06:30:03.416Z,9.75
2023-03-26T06:32:54.240Z,9.94
2023-03-26T06:35:26.612Z,10.01
2023-03-26T06:37:55.715Z,10.07
2023-03-26T06:40:24.778Z,10.08
2023-03-26T06:43:11.065Z,10.08
2023-03-26T06:45:52.365Z,10.12
2023-03-26T06:48:40.347Z,10.20
2023-03-26T06:51:14.262Z,10.23
2023-03-26T06:54:01.305Z,10.24
2023-03-26T06:56:48.019Z,10.23
2023-03-26T06:59:36.830Z,10.24
2023-03-26T07:02:23.748Z,10.34
2023-03-26T07:05:10.791Z,10.48
2023-03-26T07:07:58.074Z,10.57
2023-03-26T07:10:44.995Z,10.61
2023-03-26T07:13:31.794Z,10.64
2023-03-26T07:16:26.717Z,10.66
2023-03-26T07:19:14.095Z,10.72
2023-03-26T07:21:43.673Z,10.74
2023-03-26T07:24:29.820Z,10.76
2023-03-26T07:27:22.800Z,10.83
2023-03-26T07:29:54.400Z,10.90
2023-03-26T07:32:53.568Z,10.96
2023-03-26T07:36:23.552Z,10.99
2023-03-26T07:39:29.812Z,10.98
2023-03-26T07:42:38.899Z,10.97
2023-03-26T07:45:38.172Z,10.98
2023-03-26T07:48:25.561Z,11.01
2023-03-26T07:51:18.811Z,11.04
2023-03-26T07:54:16.603Z,11.12
2023-03-26T07:57:11.206Z,11.29
2023-03-26T08:00:01.383Z,11.46
2023-03-26T08:03:13.846Z,11.67
2023-03-26T08:06:07.046Z,11.86
2023-03-26T08:08:50.405Z,12.15
2023-03-26T08:12:20.921Z,12.32
2023-03-26T08:15:01.456Z,12.32
2023-03-26T08:17:54.335Z,12.23
2023-03-26T08:20:34.347Z,12.19
2023-03-26T08:23:14.099Z,12.31
2023-03-26T08:26:02.541Z,12.46
2023-03-26T08:28:53.635Z,12.35
2023-03-26T08:31:36.940Z,12.23
2023-03-26T08:34:06.455Z,12.28
2023-03-26T08:36:34.936Z,12.21
2023-03-26T08:39:04.128Z,12.21
2023-03-26T08:41:51.267Z,12.41
2023-03-26T08:44:22.325Z,12.74
2023-03-26T08:47:05.656Z,12.99
2023-03-26T08:50:04.997Z,12.97
2023-03-26T08:52:58.124Z,12.89
2023-03-26T08:55:43.797Z,12.89
2023-03-26T08:58:56.635Z,12.82
2023-03-26T09:01:46.131Z,12.68
2023-03-26T09:04:39.866Z,12.59
2023-03-26T09:07:47.994Z,12.52
2023-03-26T09:10:51.196Z,12.37
2023-03-26T09:13:22.600Z,12.25
2023-03-26T09:15:51.200Z,12.19
2023-03-26T09:18:53.741Z,12.16
2023-03-26T09:22:08.751Z,12.18
2023-03-26T09:25:07.978Z,12.17
2023-03-26T09:27:56.315Z,12.17
2023-03-26T09:30:39.676Z,12.23
2023-03-26T09:33:19.114Z,12.29
2023-03-26T09:35:54.130Z,12.38
2023-03-26T09:38:42.125Z,12.45
2023-03-26T09:41:33.822Z,12.48
2023-03-26T09:45:03.580Z,12.55
2023-03-26T09:47:50.640Z,12.66
2023-03-26T09:50:50.214Z,12.73
2023-03-26T09:53:28.655Z,12.82
2023-03-26T09:56:21.942Z,12.92
2023-03-26T09:59:05.500Z,13.04
2023-03-26T10:02:05.727Z,13.11
2023-03-26T10:04:45.604Z,13.11
2023-03-26T10:07:49.098Z,13.14
2023-03-26T10:10:41.660Z,13.26
2023-03-26T10:13:26.495Z,13.30
2023-03-26T10:16:20.323Z,13.37
2023-03-26T10:19:19.890Z,13.44
2023-03-26T10:22:10.829Z,13.55
2023-03-26T10:25:16.722Z,13.63
2023-03-26T10:28:18.152Z,13.63
2023-03-26T10:31:14.381Z,13.56
2023-03-26T10:33:59.329Z,13.48
2023-03-26T10:36:32.584Z,13.34
2023-03-26T10:39:36.810Z,13.21
2023-03-26T10:42:23.323Z,13.10
2023-03-26T10:45:14.903Z,13.07
2023-03-26T10:47:55.301Z,13.05
2023-03-26T10:50:45.020Z,13.32
2023-03-26T10:53:43.855Z,13.77
2023-03-26T10:56:33.883Z,14.03
2023-03-26T10:59:07.318Z,14.10
2023-03-26T11:01:44.902Z,14.08
2023-03-26T11:04:28.305Z,14.10
2023-03-26T11:07:21.346Z,14.19
2023-03-26T11:10:11.737Z,14.23
2023-03-26T11:12:55.109Z,14.18
2023-03-26T11:15:44.735Z,14.12
2023-03-26T11:18:23.076Z,14.09
2023-03-26T11:21:20.641Z,14.08
2023-03-26T11:24:17.809Z,14.09
2023-03-26T11:26:57.780Z,14.06
2023-03-26T11:29:58.201Z,13.95
2023-03-26T11:32:39.500Z,13.76
2023-03-26T11:35:40.353Z,13.58
2023-03-26T11:38:26.482Z,13.42
2023-03-26T11:40:59.485Z,13.32
2023-03-26T11:43:49.800Z,13.29
2023-03-26T11:46:20.878Z,13.35
2023-03-26T11:49:11.546Z,13.37
2023-03-26T11:51:42.036Z,13.31
2023-03-26T11:54:12.545Z,13.21
2023-03-26T11:57:08.743Z,13.09
2023-03-26T11:59:58.136Z,13.03
2023-03-26T12:02:38.164Z,12.96
2023-03-26T12:05:15.325Z,12.89
2023-03-26T12:07:56.972Z,12.84
2023-03-26T12:10:39.620Z,12.88
2023-03-26T12:13:38.182Z,13.01
2023-03-26T12:16:18.676Z,13.25
2023-03-26T12:18:58.954Z,13.56
2023-03-26T12:21:27.541Z,13.99
2023-03-26T12:24:02.779Z,14.45
2023-03-26T12:26:46.376Z,14.85
2023-03-26T12:29:17.633Z,15.07
2023-03-26T12:32:02.975Z,15.14
2023-03-26T12:34:35.449Z,15.16
2023-03-26T12:37:05.937Z,15.14
2023-03-26T12:40:08.087Z,15.02
2023-03-26T12:44:51.504Z,14.82
2023-03-26T12:45:40.834Z,14.61
2023-03-26T12:48:13.042Z,14.36
2023-03-26T12:51:09.527Z,14.08
2023-03-26T12:54:07.006Z,13.91
2023-03-26T12:57:12.404Z,13.89
2023-03-26T12:59:44.165Z,13.91
2023-03-26T13:02:43.966Z,13.97
2023-03-26T13:05:40.400Z,14.01
2023-03-26T13:08:31.185Z,13.96
2023-03-26T13:11:13.263Z,13.80
2023-03-26T13:14:12.664Z,13.62
2023-03-26T13:17:10.537Z,13.42
2023-03-26T13:19:47.833Z,13.33
2023-03-26T13:22:55.419Z,13.26
2023-03-26T13:25:36.567Z,13.12
2023-03-26T13:28:10.843Z,12.97
2023-03-26T13:30:48.005Z,12.87
2023-03-26T13:33:46.396Z,12.77
2023-03-26T13:36:41.827Z,12.76
2023-03-26T13:39:37.491Z,12.79
2023-03-26T13:42:21.864Z,12.86
2023-03-26T13:45:05.041Z,12.93
2023-03-26T13:47:39.422Z,12.99
2023-03-26T13:50:18.580Z,13.17
2023-03-26T13:52:56.958Z,13.50
2023-03-26T13:55:37.479Z,13.68
2023-03-26T13:58:11.567Z,13.75
2023-03-26T14:01:01.936Z,13.79
2023-03-26T14:04:00.822Z,13.98
2023-03-26T14:06:47.174Z,14.33
2023-03-26T14:09:22.976Z,14.53
2023-03-26T14:11:51.195Z,14.59
2023-03-26T14:14:28.703Z,14.62
2023-03-26T14:17:02.327Z,14.53
2023-03-26T14:19:43.494Z,14.48
2023-03-26T14:22:45.784Z,14.45
2023-03-26T14:25:27.475Z,14.50
2023-03-26T14:28:20.435Z,14.60
2023-03-26T14:31:06.116Z,14.64
2023-03-26T14:33:52.733Z,14.67
2023-03-26T14:37:06.071Z,14.66
2023-03-26T14:39:46.212Z,14.60
2023-03-26T14:42:29.888Z,14.58
2023-03-26T14:45:14.379Z,14.66
2023-03-26T14:48:14.089Z,14.79
2023-03-26T14:50:50.463Z,14.81
2023-03-26T14:53:42.313Z,14.76
2023-03-26T14:56:31.790Z,14.60
2023-03-26T14:59:31.372Z,14.45
2023-03-26T15:02:24.089Z,14.30
2023-03-26T15:05:29.231Z,14.18
2023-03-26T15:08:09.351Z,14.02
2023-03-26T15:10:56.126Z,13.90
2023-03-26T15:13:55.497Z,13.84
2023-03-26T15:17:00.038Z,13.77
2023-03-26T15:19:46.764Z,13.68
2023-03-26T15:22:33.214Z,13.58
2023-03-26T15:25:33.111Z,13.48
2023-03-26T15:28:22.350Z,13.40
2023-03-26T15:31:24.238Z,13.32
2023-03-26T15:34:01.744Z,13.22
2023-03-26T15:37:10.793Z,13.11
2023-03-26T15:40:21.011Z,13.03
2023-03-26T15:43:01.567Z,12.98
2023-03-26T15:45:37.965Z,12.94
2023-03-26T15:48:12.480Z,12.93
2023-03-26T15:50:57.961Z,12.93
2023-03-26T15:53:26.661Z,12.94
2023-03-26T15:56:00.793Z,12.95
2023-03-26T15:58:44.208Z,12.96
2023-03-26T16:01:37.339Z,12.97
2023-03-26T16:04:30.256Z,12.97
2023-03-26T16:07:29.103Z,12.96
2023-03-26T16:10:28.296Z,12.94
2023-03-26T16:13:19.448Z,12.92
2023-03-26T16:15:58.546Z,12.90
2023-03-26T16:18:44.027Z,12.87
2023-03-26T16:21:54.448Z,12.84
2023-03-26T16:24:25.953Z,12.81
2023-03-26T16:27:03.227Z,12.75
2023-03-26T16:29:31.692Z,12.70
2023-03-26T16:32:29.936Z,12.62
2023-03-26T16:35:03.499Z,12.54
2023-03-26T16:37:32.057Z,12.45
2023-03-26T16:40:27.186Z,12.37
2023-03-26T16:43:33.071Z,12.24
2023-03-26T16:46:25.085Z,12.10
2023-03-26T16:48:59.027Z,11.95
2023-03-26T16:51:39.762Z,11.77
2023-03-26T16:54:41.730Z,11.58
2023-03-26T16:57:38.597Z,11.43
2023-03-26T17:00:13.885Z,11.26
2023-03-26T17:03:00.028Z,11.07
2023-03-26T17:05:39.879Z,10.88
2023-03-26T17:08:16.457Z,10.73
2023-03-26T17:10:54.354Z,10.58
2023-03-26T17:13:29.695Z,10.44
2023-03-26T17:15:57.904Z,10.30
2023-03-26T17:18:48.142Z,10.15
2023-03-26T17:21:24.726Z,9.99
2023-03-26T17:24:15.293Z,9.83
2023-03-26T17:27:19.578Z,9.66
2023-03-26T17:30:30.619Z,9.47
2023-03-26T17:33:23.323Z,9.27
2023-03-26T17:36:03.386Z,9.11
2023-03-26T17:38:31.532Z,8.96
2023-03-26T17:41:00.544Z,8.82
2023-03-26T17:43:37.966Z,8.67
2023-03-26T17:46:25.117Z,8.55
2023-03-26T17:49:11.504Z,8.42
2023-03-26T17:51:49.528Z,8.28
2023-03-26T17:54:34.304Z,8.16
2023-03-26T17:57:09.695Z,8.04
2023-03-26T17:59:40.462Z,7.92
2023-03-26T18:02:16.001Z,7.83
2023-03-26T18:04:48.259Z,7.72
2023-03-26T18:07:53.735Z,7.59
2023-03-26T18:10:33.066Z,7.46
2023-03-26T18:13:04.361Z,7.31
2023-03-26T18:15:49.015Z,7.15
2023-03-26T18:18:31.980Z,7.01
2023-03-26T18:21:03.614Z,6.89
2023-03-26T18:23:41.235Z,6.79
2023-03-26T18:26:14.233Z,6.72
2023-03-26T18:28:51.600Z,6.63
2023-03-26T18:31:26.495Z,6.52
2023-03-26T18:33:59.386Z,6.42
2023-03-26T18:36:28.177Z,6.34
2023-03-26T18:38:59.230Z,6.27
2023-03-26T18:41:32.133Z,6.22
2023-03-26T18:44:07.945Z,6.16
2023-03-26T18:46:36.692Z,6.10
2023-03-26T18:49:06.070Z,6.03
2023-03-26T18:51:43.229Z,5.98
2023-03-26T18:54:20.733Z,5.92
2023-03-26T18:56:50.026Z,5.87
2023-03-26T18:59:30.909Z,5.83
2023-03-26T19:02:04.279Z,5.80
2023-03-26T19:04:34.991Z,5.77
2023-03-26T19:07:14.354Z,5.75
2023-03-26T19:09:43.569Z,5.74
2023-03-26T19:12:27.602Z,5.73
2023-03-26T19:14:57.715Z,5.72
2023-03-26T19:17:30.175Z,5.73
2023-03-26T19:19:58.626Z,5.73
2023-03-26T19:22:29.202Z,5.73
2023-03-26T19:25:01.305Z,5.74
2023-03-26T19:27:30.322Z,5.75
2023-03-26T19:29:58.708Z,5.77
2023-03-26T19:32:32.998Z,5.81
2023-03-26T19:35:04.167Z,5.84
2023-03-26T19:37:33.173Z,5.85
2023-03-26T19:40:14.188Z,5.88
2023-03-26T19:42:45.028Z,5.91
2023-03-26T19:45:20.157Z,5.96
2023-03-26T19:48:00.161Z,6.01
2023-03-26T19:50:34.362Z,6.07
2023-03-26T19:53:15.164Z,6.13
2023-03-26T19:56:06.310Z,6.16
2023-03-26T19:58:35.702Z,6.16
2023-03-26T20:01:10.262Z,6.17
2023-03-26T20:03:41.734Z,6.19
2023-03-26T20:06:15.422Z,6.22
2023-03-26T20:08:44.245Z,6.25
2023-03-26T20:11:33.341Z,6.28
2023-03-26T20:14:01.970Z,6.30
2023-03-26T20:16:33.541Z,6.33
2023-03-26T20:19:04.840Z,6.37
2023-03-26T20:21:38.160Z,6.42
2023-03-26T20:24:13.243Z,6.48
2023-03-26T20:26:42.352Z,6.49
2023-03-26T20:29:11.799Z,6.52
2023-03-26T20:31:44.440Z,6.58
2023-03-26T20:34:17.772Z,6.66
2023-03-26T20:36:47.170Z,6.72
2023-03-26T20:39:15.498Z,6.79
2023-03-26T20:41:46.550Z,6.85
2023-03-26T20:44:18.759Z,6.90
2023-03-26T20:46:48.785Z,6.95
2023-03-26T20:49:18.448Z,7.03
2023-03-26T20:51:47.093Z,7.12
2023-03-26T20:54:23.791Z,7.16
2023-03-26T20:56:54.370Z,7.19
2023-03-26T20:59:27.098Z,7.22
2023-03-26T21:01:58.084Z,7.24
2023-03-26T21:04:27.429Z,7.26
2023-03-26T21:07:06.983Z,7.26
2023-03-26T21:09:36.270Z,7.26
2023-03-26T21:12:20.828Z,7.29
2023-03-26T21:14:49.364Z,7.32
2023-03-26T21:17:21.074Z,7.34
2023-03-26T21:19:50.306Z,7.37
2023-03-26T21:22:27.461Z,7.40
2023-03-26T21:25:27.804Z,7.43
2023-03-26T21:28:14.723Z,7.45
2023-03-26T21:30:43.951Z,7.46
2023-03-26T21:33:12.063Z,7.43
2023-03-26T21:35:42.205Z,7.41
2023-03-26T21:38:11.725Z,7.40
2023-03-26T21:40:42.474Z,7.40
2023-03-26T21:43:16.680Z,7.40
2023-03-26T21:45:56.284Z,7.41
2023-03-26T21:48:25.127Z,7.41
2023-03-26T21:50:53.747Z,7.41
2023-03-26T21:53:22.682Z,7.42
2023-03-26T21:56:23.652Z,7.43
2023-03-26T21:59:18.296Z,7.45
2023-03-26T22:02:01.773Z,7.45
2023-03-26T22:04:42.762Z,7.45
2023-03-26T22:07:19.753Z,7.43
2023-03-26T22:09:48.303Z,7.40
2023-03-26T22:12:16.999Z,7.37
2023-03-26T22:14:45.215Z,7.36
2023-03-26T22:17:13.790Z,7.35
2023-03-26T22:19:42.174Z,7.32
2023-03-26T22:22:10.753Z,7.30
2023-03-26T22:24:39.114Z,7.28
2023-03-26T22:27:08.434Z,7.27
2023-03-26T22:29:36.594Z,7.24
2023-03-26T22:32:05.148Z,7.20
2023-03-26T22:34:35.180Z,7.15
2023-03-26T22:37:05.355Z,7.12
2023-03-26T22:39:33.900Z,7.09
2023-03-26T22:42:03.891Z,7.07
2023-03-26T22:44:32.094Z,7.06
2023-03-26T22:47:01.360Z,7.08
2023-03-26T22:49:31.371Z,7.11
2023-03-26T22:51:59.550Z,7.13
2023-03-26T22:54:27.783Z,7.14
2023-03-26T22:56:56.105Z,7.17
2023-03-26T22:59:24.339Z,7.19
2023-03-26T23:01:52.652Z,7.20
2023-03-26T23:04:30.310Z,7.22
2023-03-26T23:07:00.449Z,7.22
2023-03-26T23:09:29.617Z,7.21
2023-03-26T23:11:58.271Z,7.18
2023-03-26T23:14:26.687Z,7.18
2023-03-26T23:16:55.280Z,7.16
2023-03-26T23:19:23.623Z,7.14
2023-03-26T23:21:52.428Z,7.13
2023-03-26T23:24:20.696Z,7.12
2023-03-26T23:26:51.133Z,7.09
2023-03-26T23:29:19.714Z,7.06
2023-03-26T23:31:48.151Z,7.05
2023-03-26T23:34:17.153Z,7.03
2023-03-26T23:36:45.563Z,7.02
2023-03-26T23:39:13.800Z,7.03
2023-03-26T23:41:42.171Z,7.05
2023-03-26T23:44:14.327Z,7.06
2023-03-26T23:46:42.891Z,7.06
2023-03-26T23:49:12.174Z,7.06
2023-03-26T23:51:40.533Z,7.08
2023-03-26T23:54:08.873Z,7.10
2023-03-26T23:56:38.152Z,7.12
2023-03-26T23:59:06.363Z,7.12
